sensor_id;sensor_type;location;lat;lon;timestamp;temperature;humidity
23116;DHT22;11727;52.134;5.052;2023-04-27T00:00:20;3.40;99.90
23116;DHT22;11727;52.134;5.052;2023-04-27T00:02:46;3.40;99.90
23116;DHT22;11727;52.134;5.052;2023-04-27T00:05:11;3.40;99.90
23116;DHT22;11727;52.134;5.052;2023-04-27T00:07:37;3.30;99.90
23116;DHT22;11727;52.134;5.052;2023-04-27T00:10:03;3.30;99.90
23116;DHT22;11727;52.134;5.052;2023-04-27T00:12:29;3.30;99.90
23116;DHT22;11727;52.134;5.052;2023-04-27T00:14:55;3.20;99.90
23116;DHT22;11727;52.134;5.052;2023-04-27T00:17:20;3.20;99.90
23116;DHT22;11727;52.134;5.052;2023-04-27T00:19:46;3.20;99.90
23116;DHT22;11727;52.134;5.052;2023-04-27T00:22:12;3.20;99.90
23116;DHT22;11727;52.134;5.052;2023-04-27T00:24:38;3.20;99.90
23116;DHT22;11727;52.134;5.052;2023-04-27T00:27:06;3.10;99.90
23116;DHT22;11727;52.134;5.052;2023-04-27T00:29:31;3.10;99.90
23116;DHT22;11727;52.134;5.052;2023-04-27T00:31:57;3.10;99.90
23116;DHT22;11727;52.134;5.052;2023-04-27T00:34:23;3.10;99.90
23116;DHT22;11727;52.134;5.052;2023-04-27T00:36:48;3.00;99.90
23116;DHT22;11727;52.134;5.052;2023-04-27T00:39:14;3.00;99.90
23116;DHT22;11727;52.134;5.052;2023-04-27T00:41:41;3.00;99.90
23116;DHT22;11727;52.134;5.052;2023-04-27T00:44:06;3.00;99.90
23116;DHT22;11727;52.134;5.052;2023-04-27T00:46:32;2.90;99.90
23116;DHT22;11727;52.134;5.052;2023-04-27T00:48:59;2.90;99.90
23116;DHT22;11727;52.134;5.052;2023-04-27T00:51:26;2.90;99.90
23116;DHT22;11727;52.134;5.052;2023-04-27T00:53:56;2.90;99.90
23116;DHT22;11727;52.134;5.052;2023-04-27T00:56:22;2.90;99.90
23116;DHT22;11727;52.134;5.052;2023-04-27T00:58:48;2.80;99.90
23116;DHT22;11727;52.134;5.052;2023-04-27T01:01:26;2.80;99.90
23116;DHT22;11727;52.134;5.052;2023-04-27T01:03:55;2.80;99.90
23116;DHT22;11727;52.134;5.052;2023-04-27T01:06:20;2.70;99.90
23116;DHT22;11727;52.134;5.052;2023-04-27T01:08:46;2.70;99.90
23116;DHT22;11727;52.134;5.052;2023-04-27T01:11:12;2.70;99.90
23116;DHT22;11727;52.134;5.052;2023-04-27T01:13:37;2.70;99.90
23116;DHT22;11727;52.134;5.052;2023-04-27T01:16:03;2.60;99.90
23116;DHT22;11727;52.134;5.052;2023-04-27T01:18:29;2.70;99.90
23116;DHT22;11727;52.134;5.052;2023-04-27T01:20:54;2.60;99.90
23116;DHT22;11727;52.134;5.052;2023-04-27T01:23:20;2.70;99.90
23116;DHT22;11727;52.134;5.052;2023-04-27T01:25:46;2.60;99.90
23116;DHT22;11727;52.134;5.052;2023-04-27T01:28:11;2.60;99.90
23116;DHT22;11727;52.134;5.052;2023-04-27T01:30:37;2.60;99.90
23116;DHT22;11727;52.134;5.052;2023-04-27T01:33:03;2.60;99.90
23116;DHT22;11727;52.134;5.052;2023-04-27T01:35:28;2.50;99.90
23116;DHT22;11727;52.134;5.052;2023-04-27T01:37:55;2.50;99.90
23116;DHT22;11727;52.134;5.052;2023-04-27T01:40:21;2.40;99.90
23116;DHT22;11727;52.134;5.052;2023-04-27T01:42:47;2.50;99.90
23116;DHT22;11727;52.134;5.052;2023-04-27T01:45:12;2.40;99.90
23116;DHT22;11727;52.134;5.052;2023-04-27T01:47:38;2.40;99.90
23116;DHT22;11727;52.134;5.052;2023-04-27T01:50:04;2.40;99.90
23116;DHT22;11727;52.134;5.052;2023-04-27T01:52:30;2.40;99.90
23116;DHT22;11727;52.134;5.052;2023-04-27T01:54:56;2.40;99.90
23116;DHT22;11727;52.134;5.052;2023-04-27T01:57:21;2.40;99.90
23116;DHT22;11727;52.134;5.052;2023-04-27T01:59:47;2.40;99.90
23116;DHT22;11727;52.134;5.052;2023-04-27T02:02:13;2.40;99.90
23116;DHT22;11727;52.134;5.052;2023-04-27T02:04:38;2.30;99.90
23116;DHT22;11727;52.134;5.052;2023-04-27T02:07:04;2.30;99.90
23116;DHT22;11727;52.134;5.052;2023-04-27T02:09:29;2.30;99.90
23116;DHT22;11727;52.134;5.052;2023-04-27T02:11:55;2.30;99.90
23116;DHT22;11727;52.134;5.052;2023-04-27T02:14:21;2.30;99.90
23116;DHT22;11727;52.134;5.052;2023-04-27T02:16:46;2.30;99.90
23116;DHT22;11727;52.134;5.052;2023-04-27T02:19:12;2.20;99.90
23116;DHT22;11727;52.134;5.052;2023-04-27T02:21:39;2.20;99.90
23116;DHT22;11727;52.134;5.052;2023-04-27T02:24:05;2.20;99.90
23116;DHT22;11727;52.134;5.052;2023-04-27T02:26:30;2.20;99.90
23116;DHT22;11727;52.134;5.052;2023-04-27T02:28:56;2.20;99.90
23116;DHT22;11727;52.134;5.052;2023-04-27T02:31:22;2.20;99.90
23116;DHT22;11727;52.134;5.052;2023-04-27T02:33:48;2.20;99.90
23116;DHT22;11727;52.134;5.052;2023-04-27T02:36:13;2.20;99.90
23116;DHT22;11727;52.134;5.052;2023-04-27T02:38:39;2.20;99.90
23116;DHT22;11727;52.134;5.052;2023-04-27T02:41:05;2.10;99.90
23116;DHT22;11727;52.134;5.052;2023-04-27T02:43:30;2.10;99.90
23116;DHT22;11727;52.134;5.052;2023-04-27T02:45:56;2.10;99.90
23116;DHT22;11727;52.134;5.052;2023-04-27T02:48:21;2.10;99.90
23116;DHT22;11727;52.134;5.052;2023-04-27T02:50:47;2.10;99.90
23116;DHT22;11727;52.134;5.052;2023-04-27T02:53:13;2.20;99.90
23116;DHT22;11727;52.134;5.052;2023-04-27T02:55:44;2.10;99.90
23116;DHT22;11727;52.134;5.052;2023-04-27T02:58:12;2.10;99.90
23116;DHT22;11727;52.134;5.052;2023-04-27T03:00:38;2.10;99.90
23116;DHT22;11727;52.134;5.052;2023-04-27T03:03:05;2.10;99.90
23116;DHT22;11727;52.134;5.052;2023-04-27T03:05:31;2.10;99.90
23116;DHT22;11727;52.134;5.052;2023-04-27T03:07:57;2.10;99.90
23116;DHT22;11727;52.134;5.052;2023-04-27T03:10:23;2.10;99.90
23116;DHT22;11727;52.134;5.052;2023-04-27T03:12:48;2.00;99.90
23116;DHT22;11727;52.134;5.052;2023-04-27T03:15:14;2.00;99.90
23116;DHT22;11727;52.134;5.052;2023-04-27T03:17:39;2.00;99.90
23116;DHT22;11727;52.134;5.052;2023-04-27T03:20:05;1.90;99.90
23116;DHT22;11727;52.134;5.052;2023-04-27T03:22:36;1.90;99.90
23116;DHT22;11727;52.134;5.052;2023-04-27T03:25:02;1.90;99.90
23116;DHT22;11727;52.134;5.052;2023-04-27T03:27:28;1.90;99.90
23116;DHT22;11727;52.134;5.052;2023-04-27T03:29:54;1.90;99.90
23116;DHT22;11727;52.134;5.052;2023-04-27T03:32:20;1.90;99.90
23116;DHT22;11727;52.134;5.052;2023-04-27T03:34:46;1.90;99.90
23116;DHT22;11727;52.134;5.052;2023-04-27T03:37:11;1.80;99.90
23116;DHT22;11727;52.134;5.052;2023-04-27T03:39:37;1.80;99.90
23116;DHT22;11727;52.134;5.052;2023-04-27T03:42:03;1.80;99.90
23116;DHT22;11727;52.134;5.052;2023-04-27T03:44:29;1.80;99.90
23116;DHT22;11727;52.134;5.052;2023-04-27T03:47:00;1.70;99.90
23116;DHT22;11727;52.134;5.052;2023-04-27T03:49:26;1.70;99.90
23116;DHT22;11727;52.134;5.052;2023-04-27T03:51:52;1.70;99.90
23116;DHT22;11727;52.134;5.052;2023-04-27T03:54:17;1.70;99.90
23116;DHT22;11727;52.134;5.052;2023-04-27T03:56:43;1.70;99.90
23116;DHT22;11727;52.134;5.052;2023-04-27T03:59:09;1.70;99.90
23116;DHT22;11727;52.134;5.052;2023-04-27T04:01:34;1.70;99.90
23116;DHT22;11727;52.134;5.052;2023-04-27T04:04:00;1.70;99.90
23116;DHT22;11727;52.134;5.052;2023-04-27T04:06:26;1.70;99.90
23116;DHT22;11727;52.134;5.052;2023-04-27T04:08:52;1.60;99.90
23116;DHT22;11727;52.134;5.052;2023-04-27T04:11:19;1.60;99.90
23116;DHT22;11727;52.134;5.052;2023-04-27T04:13:44;1.60;99.90
23116;DHT22;11727;52.134;5.052;2023-04-27T04:16:10;1.60;99.90
23116;DHT22;11727;52.134;5.052;2023-04-27T04:18:36;1.60;99.90
23116;DHT22;11727;52.134;5.052;2023-04-27T04:21:02;1.60;99.90
23116;DHT22;11727;52.134;5.052;2023-04-27T04:23:28;1.60;99.90
23116;DHT22;11727;52.134;5.052;2023-04-27T04:25:54;1.50;99.90
23116;DHT22;11727;52.134;5.052;2023-04-27T04:28:22;1.50;99.90
23116;DHT22;11727;52.134;5.052;2023-04-27T04:30:48;1.50;99.90
23116;DHT22;11727;52.134;5.052;2023-04-27T04:33:14;1.50;99.90
23116;DHT22;11727;52.134;5.052;2023-04-27T04:35:41;1.60;99.90
23116;DHT22;11727;52.134;5.052;2023-04-27T04:38:07;1.60;99.90
23116;DHT22;11727;52.134;5.052;2023-04-27T04:40:33;1.60;99.90
23116;DHT22;11727;52.134;5.052;2023-04-27T04:42:59;1.70;99.90
23116;DHT22;11727;52.134;5.052;2023-04-27T04:45:24;1.70;99.90
23116;DHT22;11727;52.134;5.052;2023-04-27T04:47:50;1.80;99.90
23116;DHT22;11727;52.134;5.052;2023-04-27T04:50:16;1.80;99.90
23116;DHT22;11727;52.134;5.052;2023-04-27T04:52:41;1.80;99.90
23116;DHT22;11727;52.134;5.052;2023-04-27T04:55:07;1.90;99.90
23116;DHT22;11727;52.134;5.052;2023-04-27T04:57:33;1.90;99.90
23116;DHT22;11727;52.134;5.052;2023-04-27T04:59:59;2.00;99.90
23116;DHT22;11727;52.134;5.052;2023-04-27T05:02:26;2.00;99.90
23116;DHT22;11727;52.134;5.052;2023-04-27T05:04:51;2.10;99.90
23116;DHT22;11727;52.134;5.052;2023-04-27T05:07:17;2.10;99.90
23116;DHT22;11727;52.134;5.052;2023-04-27T05:09:43;2.20;99.90
23116;DHT22;11727;52.134;5.052;2023-04-27T05:12:08;2.30;99.90
23116;DHT22;11727;52.134;5.052;2023-04-27T05:14:34;2.40;99.90
23116;DHT22;11727;52.134;5.052;2023-04-27T05:17:00;2.50;99.90
23116;DHT22;11727;52.134;5.052;2023-04-27T05:19:28;2.60;99.90
23116;DHT22;11727;52.134;5.052;2023-04-27T05:21:53;2.80;99.90
23116;DHT22;11727;52.134;5.052;2023-04-27T05:24:19;3.00;99.90
23116;DHT22;11727;52.134;5.052;2023-04-27T05:26:45;3.20;99.90
23116;DHT22;11727;52.134;5.052;2023-04-27T05:29:11;3.30;99.90
23116;DHT22;11727;52.134;5.052;2023-04-27T05:31:36;3.50;99.90
23116;DHT22;11727;52.134;5.052;2023-04-27T05:34:02;3.70;99.90
23116;DHT22;11727;52.134;5.052;2023-04-27T05:36:27;3.80;99.90
23116;DHT22;11727;52.134;5.052;2023-04-27T05:38:54;4.00;99.90
23116;DHT22;11727;52.134;5.052;2023-04-27T05:41:20;4.20;99.90
23116;DHT22;11727;52.134;5.052;2023-04-27T05:43:45;4.40;99.90
23116;DHT22;11727;52.134;5.052;2023-04-27T05:46:14;4.60;99.90
23116;DHT22;11727;52.134;5.052;2023-04-27T05:48:40;4.80;99.90
23116;DHT22;11727;52.134;5.052;2023-04-27T05:51:06;5.00;99.90
23116;DHT22;11727;52.134;5.052;2023-04-27T05:53:33;5.20;99.90
23116;DHT22;11727;52.134;5.052;2023-04-27T05:55:59;5.40;99.90
23116;DHT22;11727;52.134;5.052;2023-04-27T05:58:26;5.60;99.90
23116;DHT22;11727;52.134;5.052;2023-04-27T06:00:52;5.80;99.90
23116;DHT22;11727;52.134;5.052;2023-04-27T06:03:18;6.00;99.90
23116;DHT22;11727;52.134;5.052;2023-04-27T06:05:44;6.10;99.90
23116;DHT22;11727;52.134;5.052;2023-04-27T06:08:11;6.20;99.90
23116;DHT22;11727;52.134;5.052;2023-04-27T06:10:40;6.30;99.90
23116;DHT22;11727;52.134;5.052;2023-04-27T06:13:05;6.50;99.90
23116;DHT22;11727;52.134;5.052;2023-04-27T06:15:31;6.70;99.90
23116;DHT22;11727;52.134;5.052;2023-04-27T06:17:57;6.90;99.90
23116;DHT22;11727;52.134;5.052;2023-04-27T06:20:22;7.10;99.90
23116;DHT22;11727;52.134;5.052;2023-04-27T06:22:48;7.20;99.90
23116;DHT22;11727;52.134;5.052;2023-04-27T06:25:14;7.40;99.90
23116;DHT22;11727;52.134;5.052;2023-04-27T06:27:39;7.60;99.90
23116;DHT22;11727;52.134;5.052;2023-04-27T06:30:05;7.80;99.90
23116;DHT22;11727;52.134;5.052;2023-04-27T06:32:32;8.00;99.90
23116;DHT22;11727;52.134;5.052;2023-04-27T06:34:57;8.20;99.90
23116;DHT22;11727;52.134;5.052;2023-04-27T06:37:23;8.40;99.90
23116;DHT22;11727;52.134;5.052;2023-04-27T06:39:49;8.60;99.90
23116;DHT22;11727;52.134;5.052;2023-04-27T06:42:14;8.70;99.90
23116;DHT22;11727;52.134;5.052;2023-04-27T06:44:40;8.90;99.90
23116;DHT22;11727;52.134;5.052;2023-04-27T06:47:05;9.10;99.90
23116;DHT22;11727;52.134;5.052;2023-04-27T06:49:31;9.30;99.90
23116;DHT22;11727;52.134;5.052;2023-04-27T06:51:57;9.40;99.90
23116;DHT22;11727;52.134;5.052;2023-04-27T06:54:22;9.60;99.90
23116;DHT22;11727;52.134;5.052;2023-04-27T06:56:48;9.70;99.90
23116;DHT22;11727;52.134;5.052;2023-04-27T06:59:13;9.80;99.90
23116;DHT22;11727;52.134;5.052;2023-04-27T07:01:39;9.90;99.90
23116;DHT22;11727;52.134;5.052;2023-04-27T07:04:05;10.10;99.90
23116;DHT22;11727;52.134;5.052;2023-04-27T07:06:31;10.40;99.90
23116;DHT22;11727;52.134;5.052;2023-04-27T07:08:58;10.60;99.90
23116;DHT22;11727;52.134;5.052;2023-04-27T07:11:23;10.80;99.90
23116;DHT22;11727;52.134;5.052;2023-04-27T07:13:49;10.80;99.90
23116;DHT22;11727;52.134;5.052;2023-04-27T07:16:15;10.90;99.90
23116;DHT22;11727;52.134;5.052;2023-04-27T07:18:41;10.90;99.90
23116;DHT22;11727;52.134;5.052;2023-04-27T07:21:07;11.00;99.90
23116;DHT22;11727;52.134;5.052;2023-04-27T07:23:33;10.90;99.90
23116;DHT22;11727;52.134;5.052;2023-04-27T07:25:58;11.00;99.90
23116;DHT22;11727;52.134;5.052;2023-04-27T07:28:24;11.10;99.90
23116;DHT22;11727;52.134;5.052;2023-04-27T07:30:50;11.20;99.90
23116;DHT22;11727;52.134;5.052;2023-04-27T07:33:16;11.20;99.90
23116;DHT22;11727;52.134;5.052;2023-04-27T07:35:42;11.10;99.90
23116;DHT22;11727;52.134;5.052;2023-04-27T07:38:07;11.10;99.90
23116;DHT22;11727;52.134;5.052;2023-04-27T07:40:33;11.20;99.90
23116;DHT22;11727;52.134;5.052;2023-04-27T07:42:59;11.10;99.90
23116;DHT22;11727;52.134;5.052;2023-04-27T07:45:25;11.10;99.90
23116;DHT22;11727;52.134;5.052;2023-04-27T07:47:58;11.00;99.90
23116;DHT22;11727;52.134;5.052;2023-04-27T07:50:28;11.10;99.90
23116;DHT22;11727;52.134;5.052;2023-04-27T07:52:54;11.30;99.90
23116;DHT22;11727;52.134;5.052;2023-04-27T07:55:21;11.40;99.90
23116;DHT22;11727;52.134;5.052;2023-04-27T07:57:51;11.50;99.90
23116;DHT22;11727;52.134;5.052;2023-04-27T08:00:17;11.70;99.90
23116;DHT22;11727;52.134;5.052;2023-04-27T08:02:43;11.90;99.90
23116;DHT22;11727;52.134;5.052;2023-04-27T08:05:09;12.10;99.90
23116;DHT22;11727;52.134;5.052;2023-04-27T08:07:34;12.30;99.90
23116;DHT22;11727;52.134;5.052;2023-04-27T08:10:00;12.50;99.90
23116;DHT22;11727;52.134;5.052;2023-04-27T08:12:26;12.70;99.90
23116;DHT22;11727;52.134;5.052;2023-04-27T08:14:51;12.70;99.90
23116;DHT22;11727;52.134;5.052;2023-04-27T08:17:18;12.60;99.90
23116;DHT22;11727;52.134;5.052;2023-04-27T08:19:43;12.50;99.90
23116;DHT22;11727;52.134;5.052;2023-04-27T08:22:09;12.50;99.90
23116;DHT22;11727;52.134;5.052;2023-04-27T08:24:35;12.60;99.90
23116;DHT22;11727;52.134;5.052;2023-04-27T08:27:01;12.70;99.90
23116;DHT22;11727;52.134;5.052;2023-04-27T08:29:28;12.80;99.90
23116;DHT22;11727;52.134;5.052;2023-04-27T08:31:53;13.00;99.90
23116;DHT22;11727;52.134;5.052;2023-04-27T08:34:19;13.10;99.90
23116;DHT22;11727;52.134;5.052;2023-04-27T08:36:45;13.20;99.90
23116;DHT22;11727;52.134;5.052;2023-04-27T08:39:13;13.30;99.90
23116;DHT22;11727;52.134;5.052;2023-04-27T08:41:41;13.50;99.90
23116;DHT22;11727;52.134;5.052;2023-04-27T08:44:08;13.60;99.90
23116;DHT22;11727;52.134;5.052;2023-04-27T08:46:34;13.70;99.90
23116;DHT22;11727;52.134;5.052;2023-04-27T08:49:01;13.70;99.90
23116;DHT22;11727;52.134;5.052;2023-04-27T08:51:27;13.70;99.90
23116;DHT22;11727;52.134;5.052;2023-04-27T08:53:54;13.60;99.90
23116;DHT22;11727;52.134;5.052;2023-04-27T08:56:26;13.70;99.90
23116;DHT22;11727;52.134;5.052;2023-04-27T08:58:53;13.90;99.90
23116;DHT22;11727;52.134;5.052;2023-04-27T09:01:22;14.00;99.90
23116;DHT22;11727;52.134;5.052;2023-04-27T09:03:54;14.10;99.90
23116;DHT22;11727;52.134;5.052;2023-04-27T09:06:34;14.00;99.90
23116;DHT22;11727;52.134;5.052;2023-04-27T09:09:01;13.80;99.90
23116;DHT22;11727;52.134;5.052;2023-04-27T09:11:31;14.00;99.90
23116;DHT22;11727;52.134;5.052;2023-04-27T09:13:59;14.10;99.90
23116;DHT22;11727;52.134;5.052;2023-04-27T09:16:26;14.20;99.90
23116;DHT22;11727;52.134;5.052;2023-04-27T09:18:53;14.20;99.90
23116;DHT22;11727;52.134;5.052;2023-04-27T09:21:27;14.40;99.90
23116;DHT22;11727;52.134;5.052;2023-04-27T09:23:53;14.60;99.90
23116;DHT22;11727;52.134;5.052;2023-04-27T09:26:23;14.80;99.90
23116;DHT22;11727;52.134;5.052;2023-04-27T09:28:52;14.90;99.90
23116;DHT22;11727;52.134;5.052;2023-04-27T09:31:18;15.10;99.90
23116;DHT22;11727;52.134;5.052;2023-04-27T09:33:45;15.20;99.90
23116;DHT22;11727;52.134;5.052;2023-04-27T09:36:12;15.10;99.90
23116;DHT22;11727;52.134;5.052;2023-04-27T09:38:38;15.10;99.90
23116;DHT22;11727;52.134;5.052;2023-04-27T09:41:04;15.10;99.90
23116;DHT22;11727;52.134;5.052;2023-04-27T09:43:32;15.00;99.90
23116;DHT22;11727;52.134;5.052;2023-04-27T09:45:57;14.80;99.90
23116;DHT22;11727;52.134;5.052;2023-04-27T09:48:24;14.60;99.90
23116;DHT22;11727;52.134;5.052;2023-04-27T09:50:51;14.70;99.90
23116;DHT22;11727;52.134;5.052;2023-04-27T09:53:37;14.80;99.90
23116;DHT22;11727;52.134;5.052;2023-04-27T09:56:12;14.90;99.90
23116;DHT22;11727;52.134;5.052;2023-04-27T10:01:38;15.10;99.90
23116;DHT22;11727;52.134;5.052;2023-04-27T10:09:27;15.40;99.90
23116;DHT22;11727;52.134;5.052;2023-04-27T10:11:56;15.60;99.90
23116;DHT22;11727;52.134;5.052;2023-04-27T10:14:23;15.60;99.90
23116;DHT22;11727;52.134;5.052;2023-04-27T10:16:52;15.70;99.90
23116;DHT22;11727;52.134;5.052;2023-04-27T10:19:19;15.80;99.90
23116;DHT22;11727;52.134;5.052;2023-04-27T10:21:58;16.00;99.90
23116;DHT22;11727;52.134;5.052;2023-04-27T10:24:48;16.20;99.90
23116;DHT22;11727;52.134;5.052;2023-04-27T10:27:17;16.10;99.90
23116;DHT22;11727;52.134;5.052;2023-04-27T10:29:45;15.90;99.90
23116;DHT22;11727;52.134;5.052;2023-04-27T10:32:24;15.60;99.90
23116;DHT22;11727;52.134;5.052;2023-04-27T10:35:03;15.50;99.90
23116;DHT22;11727;52.134;5.052;2023-04-27T10:37:41;15.60;99.90
23116;DHT22;11727;52.134;5.052;2023-04-27T10:40:11;15.90;99.90
23116;DHT22;11727;52.134;5.052;2023-04-27T10:42:40;16.20;99.90
23116;DHT22;11727;52.134;5.052;2023-04-27T10:45:06;16.20;99.90
23116;DHT22;11727;52.134;5.052;2023-04-27T10:47:42;16.40;99.90
23116;DHT22;11727;52.134;5.052;2023-04-27T10:50:09;16.60;99.90
23116;DHT22;11727;52.134;5.052;2023-04-27T10:52:43;16.60;99.90
23116;DHT22;11727;52.134;5.052;2023-04-27T10:55:18;16.60;99.90
23116;DHT22;11727;52.134;5.052;2023-04-27T10:57:48;16.80;99.90
23116;DHT22;11727;52.134;5.052;2023-04-27T11:00:24;16.80;99.90
23116;DHT22;11727;52.134;5.052;2023-04-27T11:02:52;16.80;99.90
23116;DHT22;11727;52.134;5.052;2023-04-27T11:05:20;16.60;99.90
23116;DHT22;11727;52.134;5.052;2023-04-27T11:07:46;16.80;99.90
23116;DHT22;11727;52.134;5.052;2023-04-27T11:10:17;16.90;99.90
23116;DHT22;11727;52.134;5.052;2023-04-27T11:12:43;17.10;99.90
23116;DHT22;11727;52.134;5.052;2023-04-27T11:15:09;17.20;99.90
23116;DHT22;11727;52.134;5.052;2023-04-27T11:17:35;17.20;99.90
23116;DHT22;11727;52.134;5.052;2023-04-27T11:20:00;17.40;99.90
23116;DHT22;11727;52.134;5.052;2023-04-27T11:22:26;17.70;99.90
23116;DHT22;11727;52.134;5.052;2023-04-27T11:24:52;17.80;99.90
23116;DHT22;11727;52.134;5.052;2023-04-27T11:27:19;17.70;99.90
23116;DHT22;11727;52.134;5.052;2023-04-27T11:29:46;17.40;99.90
23116;DHT22;11727;52.134;5.052;2023-04-27T11:32:19;17.50;99.90
23116;DHT22;11727;52.134;5.052;2023-04-27T11:34:50;17.40;99.90
23116;DHT22;11727;52.134;5.052;2023-04-27T11:37:26;17.40;99.90
23116;DHT22;11727;52.134;5.052;2023-04-27T11:39:52;17.40;99.90
23116;DHT22;11727;52.134;5.052;2023-04-27T11:42:23;17.60;99.90
23116;DHT22;11727;52.134;5.052;2023-04-27T11:44:53;17.60;99.90
23116;DHT22;11727;52.134;5.052;2023-04-27T11:47:19;17.60;99.90
23116;DHT22;11727;52.134;5.052;2023-04-27T11:49:47;17.70;99.90
23116;DHT22;11727;52.134;5.052;2023-04-27T11:52:13;17.60;99.90
23116;DHT22;11727;52.134;5.052;2023-04-27T11:54:49;17.50;99.90
23116;DHT22;11727;52.134;5.052;2023-04-27T11:57:16;17.50;99.90
23116;DHT22;11727;52.134;5.052;2023-04-27T11:59:41;17.20;99.90
23116;DHT22;11727;52.134;5.052;2023-04-27T12:02:07;16.80;99.90
23116;DHT22;11727;52.134;5.052;2023-04-27T12:04:33;16.80;99.90
23116;DHT22;11727;52.134;5.052;2023-04-27T12:07:00;16.90;99.90
23116;DHT22;11727;52.134;5.052;2023-04-27T12:09:26;17.00;99.90
23116;DHT22;11727;52.134;5.052;2023-04-27T12:11:53;17.00;99.90
23116;DHT22;11727;52.134;5.052;2023-04-27T12:14:19;17.00;99.90
23116;DHT22;11727;52.134;5.052;2023-04-27T12:16:45;16.90;99.90
23116;DHT22;11727;52.134;5.052;2023-04-27T12:19:10;16.90;99.90
23116;DHT22;11727;52.134;5.052;2023-04-27T12:21:36;17.00;99.90
23116;DHT22;11727;52.134;5.052;2023-04-27T12:24:02;17.10;99.90
23116;DHT22;11727;52.134;5.052;2023-04-27T12:26:27;17.00;99.90
23116;DHT22;11727;52.134;5.052;2023-04-27T12:28:53;17.10;99.90
23116;DHT22;11727;52.134;5.052;2023-04-27T12:31:19;17.10;99.90
23116;DHT22;11727;52.134;5.052;2023-04-27T12:33:49;17.20;99.90
23116;DHT22;11727;52.134;5.052;2023-04-27T12:36:15;17.30;99.90
23116;DHT22;11727;52.134;5.052;2023-04-27T12:38:41;17.30;99.90
23116;DHT22;11727;52.134;5.052;2023-04-27T12:41:07;17.20;99.90
23116;DHT22;11727;52.134;5.052;2023-04-27T12:43:33;17.10;99.80
23116;DHT22;11727;52.134;5.052;2023-04-27T12:46:00;17.20;99.90
23116;DHT22;11727;52.134;5.052;2023-04-27T12:48:26;17.30;99.90
23116;DHT22;11727;52.134;5.052;2023-04-27T12:50:52;17.40;99.90
23116;DHT22;11727;52.134;5.052;2023-04-27T12:53:17;17.60;99.90
23116;DHT22;11727;52.134;5.052;2023-04-27T12:55:43;17.40;99.90
23116;DHT22;11727;52.134;5.052;2023-04-27T12:58:09;17.10;99.70
23116;DHT22;11727;52.134;5.052;2023-04-27T13:00:34;17.10;99.90
23116;DHT22;11727;52.134;5.052;2023-04-27T13:03:00;17.20;99.90
23116;DHT22;11727;52.134;5.052;2023-04-27T13:05:26;17.40;99.90
23116;DHT22;11727;52.134;5.052;2023-04-27T13:07:51;17.50;99.60
23116;DHT22;11727;52.134;5.052;2023-04-27T13:10:17;17.70;99.90
23116;DHT22;11727;52.134;5.052;2023-04-27T13:12:43;17.80;99.80
23116;DHT22;11727;52.134;5.052;2023-04-27T13:15:09;18.10;99.00
23116;DHT22;11727;52.134;5.052;2023-04-27T13:17:35;18.10;98.50
23116;DHT22;11727;52.134;5.052;2023-04-27T13:20:00;18.00;98.70
23116;DHT22;11727;52.134;5.052;2023-04-27T13:22:26;18.00;98.80
23116;DHT22;11727;52.134;5.052;2023-04-27T13:24:52;18.00;98.20
23116;DHT22;11727;52.134;5.052;2023-04-27T13:27:18;17.80;97.80
23116;DHT22;11727;52.134;5.052;2023-04-27T13:29:44;17.70;97.80
23116;DHT22;11727;52.134;5.052;2023-04-27T13:32:13;17.60;98.40
23116;DHT22;11727;52.134;5.052;2023-04-27T13:34:39;17.60;98.30
23116;DHT22;11727;52.134;5.052;2023-04-27T13:37:04;17.50;98.40
23116;DHT22;11727;52.134;5.052;2023-04-27T13:39:31;17.30;98.60
23116;DHT22;11727;52.134;5.052;2023-04-27T13:41:57;17.50;98.30
23116;DHT22;11727;52.134;5.052;2023-04-27T13:44:23;17.50;98.60
23116;DHT22;11727;52.134;5.052;2023-04-27T13:46:52;17.60;97.90
23116;DHT22;11727;52.134;5.052;2023-04-27T13:49:18;17.70;98.40
23116;DHT22;11727;52.134;5.052;2023-04-27T13:51:44;17.90;98.90
23116;DHT22;11727;52.134;5.052;2023-04-27T13:54:09;18.00;97.40
23116;DHT22;11727;52.134;5.052;2023-04-27T13:56:35;17.80;98.10
23116;DHT22;11727;52.134;5.052;2023-04-27T13:59:02;17.70;98.70
23116;DHT22;11727;52.134;5.052;2023-04-27T14:01:28;17.80;98.20
23116;DHT22;11727;52.134;5.052;2023-04-27T14:03:53;17.70;98.70
23116;DHT22;11727;52.134;5.052;2023-04-27T14:06:19;17.50;97.90
23116;DHT22;11727;52.134;5.052;2023-04-27T14:08:45;17.60;97.80
23116;DHT22;11727;52.134;5.052;2023-04-27T14:11:12;17.60;98.10
23116;DHT22;11727;52.134;5.052;2023-04-27T14:13:37;17.70;98.30
23116;DHT22;11727;52.134;5.052;2023-04-27T14:16:03;17.70;98.50
23116;DHT22;11727;52.134;5.052;2023-04-27T14:18:29;17.80;98.40
23116;DHT22;11727;52.134;5.052;2023-04-27T14:20:54;17.80;98.40
23116;DHT22;11727;52.134;5.052;2023-04-27T14:23:20;17.60;98.50
23116;DHT22;11727;52.134;5.052;2023-04-27T14:25:46;17.50;98.00
23116;DHT22;11727;52.134;5.052;2023-04-27T14:28:12;17.60;98.60
23116;DHT22;11727;52.134;5.052;2023-04-27T14:30:39;17.60;98.00
23116;DHT22;11727;52.134;5.052;2023-04-27T14:33:05;17.50;97.90
23116;DHT22;11727;52.134;5.052;2023-04-27T14:35:33;17.40;98.40
23116;DHT22;11727;52.134;5.052;2023-04-27T14:37:59;17.20;98.10
23116;DHT22;11727;52.134;5.052;2023-04-27T14:40:28;17.10;98.60
23116;DHT22;11727;52.134;5.052;2023-04-27T14:42:54;17.00;98.70
23116;DHT22;11727;52.134;5.052;2023-04-27T14:45:19;16.90;98.30
23116;DHT22;11727;52.134;5.052;2023-04-27T14:47:45;16.70;98.10
23116;DHT22;11727;52.134;5.052;2023-04-27T14:50:11;16.60;98.30
23116;DHT22;11727;52.134;5.052;2023-04-27T14:52:37;16.40;97.90
23116;DHT22;11727;52.134;5.052;2023-04-27T14:55:03;16.50;98.80
23116;DHT22;11727;52.134;5.052;2023-04-27T14:57:29;16.60;98.70
23116;DHT22;11727;52.134;5.052;2023-04-27T14:59:56;16.70;98.70
23116;DHT22;11727;52.134;5.052;2023-04-27T15:02:21;16.70;98.40
23116;DHT22;11727;52.134;5.052;2023-04-27T15:04:47;16.60;98.80
23116;DHT22;11727;52.134;5.052;2023-04-27T15:07:13;16.60;98.70
23116;DHT22;11727;52.134;5.052;2023-04-27T15:09:38;16.60;99.00
23116;DHT22;11727;52.134;5.052;2023-04-27T15:12:04;16.50;99.30
23116;DHT22;11727;52.134;5.052;2023-04-27T15:14:32;16.50;98.80
23116;DHT22;11727;52.134;5.052;2023-04-27T15:16:58;16.50;99.70
23116;DHT22;11727;52.134;5.052;2023-04-27T15:19:23;16.60;99.40
23116;DHT22;11727;52.134;5.052;2023-04-27T15:21:49;16.90;99.80
23116;DHT22;11727;52.134;5.052;2023-04-27T15:24:14;17.10;99.90
23116;DHT22;11727;52.134;5.052;2023-04-27T15:26:40;17.20;99.50
23116;DHT22;11727;52.134;5.052;2023-04-27T15:29:06;17.10;99.00
23116;DHT22;11727;52.134;5.052;2023-04-27T15:31:31;17.00;99.60
23116;DHT22;11727;52.134;5.052;2023-04-27T15:33:57;16.90;99.90
23116;DHT22;11727;52.134;5.052;2023-04-27T15:36:23;16.80;99.10
23116;DHT22;11727;52.134;5.052;2023-04-27T15:38:51;16.60;99.50
23116;DHT22;11727;52.134;5.052;2023-04-27T15:41:17;16.60;99.80